KMTO/MTO METAR and TAF weather

Enter ICAO airport designator
Station Type Date Time Source
KMTO METAR 2020/09/28 08:53 UTC NOAA

KMTO 280853Z AUTO 34006KT 10SM -RA OVC050 13/12 A2977 RMK AO2 RAB33 SLP077 P0000 60000 T01280117 58010


Station Type Date Time Source
KMTO Decoded METAR 2020/09/28 08:53 UTC NOAA

MATTOON/CHARLESTON COLES CO, IL, United States (KMTO) 39-28N 88-16W 214M
Sep 28, 2020 - 04:53 AM EDT / 2020.09.28 0853 UTC
Wind: from the NNW (340 degrees) at 7 MPH (6 KT):0
Visibility: 10 mile(s):0
Sky conditions: overcast
Weather: light rain
Precipitation last hour: A trace
Temperature: 55.0 F (12.8 C)
Dew Point: 53.1 F (11.7 C)
Relative Humidity: 93%
Pressure (altimeter): 29.77 in. Hg (1008 hPa)
Pressure tendency: 0.03 inches (1.0 hPa) lower than three hours ago
ob: KMTO 280853Z AUTO 34006KT 10SM -RA OVC050 13/12 A2977 RMK AO2 RAB33 SLP077 P0000 60000 T01280117 58010
cycle: 9

Station Type Date Time Source
KMTO TAF UTC NOAA

Error!

Example: see airport list